createdAt,value
2019-01-14T00:01:09.902Z,108.20
2019-01-14T00:03:39.845Z,110.00
2019-01-14T00:06:10.225Z,103.67
2019-01-14T00:08:40.316Z,103.47
2019-01-14T00:11:10.163Z,99.03
2019-01-14T00:13:40.076Z,99.60
2019-01-14T00:16:10.009Z,96.60
2019-01-14T00:18:39.937Z,92.43
2019-01-14T00:21:09.767Z,94.03
2019-01-14T00:23:39.691Z,89.37
2019-01-14T00:26:10.879Z,86.60
2019-01-14T00:28:40.584Z,83.47
2019-01-14T00:31:10.414Z,83.80
2019-01-14T00:33:40.361Z,82.90
2019-01-14T00:36:17.261Z,79.43
2019-01-14T00:38:41.860Z,75.50
2019-01-14T00:41:11.676Z,73.67
2019-01-14T00:43:41.505Z,70.40
2019-01-14T00:46:11.018Z,69.17
2019-01-14T00:48:40.853Z,67.90
2019-01-14T00:51:10.577Z,67.23
2019-01-14T00:53:40.428Z,63.47
2019-01-14T00:56:10.225Z,60.80
2019-01-14T00:58:40.172Z,58.90
2019-01-14T01:01:10.300Z,58.20
2019-01-14T01:03:40.240Z,57.40
2019-01-14T01:06:10.172Z,55.13
2019-01-14T01:08:40.021Z,54.40
2019-01-14T01:11:09.823Z,52.07
2019-01-14T01:13:39.464Z,52.83
2019-01-14T01:16:09.200Z,51.10
2019-01-14T01:18:39.222Z,49.23
2019-01-14T01:21:09.032Z,49.20
2019-01-14T01:23:38.467Z,47.50
2019-01-14T01:26:08.288Z,47.27
2019-01-14T01:28:38.022Z,45.73
2019-01-14T01:31:07.746Z,45.87
2019-01-14T01:33:37.590Z,44.10
2019-01-14T01:36:07.303Z,41.77
2019-01-14T01:38:37.150Z,40.97
2019-01-14T01:41:06.967Z,41.13
2019-01-14T01:43:36.804Z,40.30
2019-01-14T01:46:06.725Z,38.73
2019-01-14T01:48:36.456Z,36.77
2019-01-14T01:51:06.284Z,37.80
2019-01-14T01:53:36.221Z,36.50
2019-01-14T01:56:06.157Z,35.30
2019-01-14T01:58:35.965Z,33.80
2019-01-14T02:01:07.189Z,33.83
2019-01-14T02:03:37.078Z,33.73
2019-01-14T02:06:06.999Z,31.40
2019-01-14T02:08:36.819Z,30.47
2019-01-14T02:11:06.775Z,29.63
2019-01-14T02:13:36.793Z,29.90
2019-01-14T02:16:06.633Z,29.20
2019-01-14T02:18:36.238Z,28.73
2019-01-14T02:21:06.067Z,28.13
2019-01-14T02:23:35.903Z,26.30
2019-01-14T02:26:05.853Z,26.30
2019-01-14T02:28:35.771Z,26.27
2019-01-14T02:31:05.608Z,25.53
2019-01-14T02:33:35.317Z,24.20
2019-01-14T02:36:05.353Z,23.90
2019-01-14T02:38:35.091Z,24.30
2019-01-14T02:41:05.030Z,24.50
2019-01-14T02:43:34.958Z,22.97
2019-01-14T02:46:04.792Z,22.83
2019-01-14T02:48:34.595Z,21.20
2019-01-14T02:51:04.328Z,21.67
2019-01-14T02:53:34.168Z,21.87
2019-01-14T02:56:04.099Z,20.70
2019-01-14T02:58:33.923Z,20.30
2019-01-14T03:01:03.769Z,20.50
2019-01-14T03:03:33.480Z,19.80
2019-01-14T03:06:03.208Z,19.17
2019-01-14T03:08:33.053Z,18.30
2019-01-14T03:11:02.879Z,19.70
2019-01-14T03:13:32.410Z,20.63
2019-01-14T03:16:02.340Z,18.40
2019-01-14T03:18:32.257Z,19.07
2019-01-14T03:21:03.465Z,17.70
2019-01-14T03:23:33.351Z,19.03
2019-01-14T03:26:03.388Z,18.93
2019-01-14T03:28:33.202Z,17.90
2019-01-14T03:31:02.978Z,17.30
2019-01-14T03:33:51.603Z,17.27
2019-01-14T03:36:21.537Z,16.03
2019-01-14T03:38:51.356Z,17.97
2019-01-14T03:41:21.185Z,18.10
2019-01-14T03:43:51.110Z,18.60
2019-01-14T03:46:20.958Z,18.53
2019-01-14T03:48:50.580Z,18.03
2019-01-14T03:51:20.205Z,18.70
2019-01-14T03:53:50.014Z,17.90
2019-01-14T03:56:19.854Z,17.60
2019-01-14T03:58:50.584Z,18.30
2019-01-14T04:01:20.447Z,18.93
2019-01-14T04:03:50.157Z,20.93
2019-01-14T04:06:20.103Z,21.47
2019-01-14T04:08:49.924Z,21.37
2019-01-14T04:11:19.876Z,19.57
2019-01-14T04:13:49.587Z,19.93
2019-01-14T04:16:19.301Z,21.50
2019-01-14T04:18:49.239Z,19.93
2019-01-14T04:21:19.076Z,20.40
2019-01-14T04:23:49.012Z,20.40
2019-01-14T04:26:18.628Z,20.50
2019-01-14T04:28:48.466Z,20.00
2019-01-14T04:33:39.296Z,20.60
2019-01-14T04:36:09.039Z,19.67
2019-01-14T04:38:39.057Z,21.00
2019-01-14T04:41:08.935Z,19.77
2019-01-14T04:43:38.731Z,20.23
2019-01-14T04:46:08.548Z,21.30
2019-01-14T04:48:38.280Z,20.83
2019-01-14T04:51:08.223Z,19.27
2019-01-14T04:53:39.752Z,20.07
2019-01-14T04:56:09.616Z,20.20
2019-01-14T04:58:39.355Z,21.70
2019-01-14T05:01:09.161Z,20.87
2019-01-14T05:03:38.813Z,20.47
2019-01-14T05:06:08.636Z,21.17
2019-01-14T05:08:38.466Z,20.27
2019-01-14T05:11:07.972Z,20.27
2019-01-14T05:13:37.627Z,21.80
2019-01-14T05:16:07.342Z,20.70
2019-01-14T05:18:37.263Z,21.23
2019-01-14T05:21:07.072Z,21.03
2019-01-14T05:23:36.638Z,19.83
2019-01-14T05:26:06.536Z,20.10
2019-01-14T05:28:36.377Z,19.73
2019-01-14T05:31:06.020Z,18.70
2019-01-14T05:33:35.722Z,20.33
2019-01-14T05:36:05.661Z,21.87
2019-01-14T05:38:35.297Z,21.37
2019-01-14T05:41:04.682Z,20.70
2019-01-14T05:43:36.290Z,21.73
2019-01-14T05:46:06.098Z,22.33
2019-01-14T05:48:35.736Z,22.67
2019-01-14T05:51:05.657Z,22.40
2019-01-14T05:53:35.391Z,23.13
2019-01-14T05:56:05.312Z,21.30
2019-01-14T05:58:35.155Z,22.00
2019-01-14T06:01:04.985Z,21.87
2019-01-14T06:03:34.821Z,21.40
2019-01-14T06:06:05.532Z,21.83
2019-01-14T06:08:35.388Z,21.47
2019-01-14T06:11:05.326Z,21.37
2019-01-14T06:13:35.153Z,22.50
2019-01-14T06:16:04.969Z,22.20
2019-01-14T06:18:34.913Z,22.70
2019-01-14T06:21:04.738Z,21.47
2019-01-14T06:23:34.479Z,22.43
2019-01-14T06:26:04.487Z,22.33
2019-01-14T06:28:34.440Z,26.23
2019-01-14T06:31:05.489Z,24.00
2019-01-14T06:33:35.123Z,23.80
2019-01-14T06:36:04.845Z,23.37
2019-01-14T06:38:34.579Z,22.80
2019-01-14T06:41:06.067Z,23.37
2019-01-14T06:43:35.763Z,22.13
2019-01-14T06:46:05.693Z,23.37
2019-01-14T06:48:35.629Z,24.37
2019-01-14T06:51:05.557Z,25.90
2019-01-14T06:53:36.491Z,25.07
2019-01-14T06:56:06.135Z,24.80
2019-01-14T06:58:37.455Z,23.73
2019-01-14T07:01:07.327Z,24.20
2019-01-14T07:03:37.066Z,25.33
2019-01-14T07:06:06.985Z,24.23
2019-01-14T07:08:36.919Z,22.70
2019-01-14T07:11:07.039Z,22.10
2019-01-14T07:13:36.784Z,22.90
2019-01-14T07:16:06.524Z,22.73
2019-01-14T07:18:36.353Z,23.10
2019-01-14T07:21:06.040Z,22.53
2019-01-14T07:23:35.905Z,20.97
2019-01-14T07:26:05.727Z,25.10
2019-01-14T07:28:35.565Z,35.00
2019-01-14T07:31:05.368Z,44.20
2019-01-14T07:33:35.132Z,53.07
2019-01-14T07:36:06.139Z,45.10
2019-01-14T07:38:35.792Z,68.80
2019-01-14T07:41:05.526Z,41.23
2019-01-14T07:43:35.258Z,26.97
2019-01-14T07:46:05.070Z,25.80
2019-01-14T07:48:34.907Z,22.73
2019-01-14T07:51:04.529Z,21.87
2019-01-14T07:53:34.573Z,20.70
2019-01-14T07:56:04.398Z,30.50
2019-01-14T07:58:34.541Z,26.43
2019-01-14T08:01:04.457Z,26.80
2019-01-14T08:03:34.302Z,25.23
2019-01-14T08:06:04.116Z,22.50
2019-01-14T08:08:33.749Z,22.60
2019-01-14T08:11:03.692Z,22.73
2019-01-14T08:13:33.611Z,21.50
2019-01-14T08:16:03.431Z,21.00
2019-01-14T08:18:33.390Z,21.53
2019-01-14T08:21:03.291Z,22.77
2019-01-14T08:23:32.715Z,20.73
2019-01-14T08:26:02.533Z,21.90
2019-01-14T08:28:32.161Z,21.70
2019-01-14T08:31:04.779Z,21.90
2019-01-14T08:33:34.488Z,26.00
2019-01-14T08:36:04.429Z,26.93
2019-01-14T08:38:34.253Z,25.77
2019-01-14T08:41:04.274Z,25.80
2019-01-14T08:43:36.665Z,24.83
2019-01-14T08:46:06.594Z,26.20
2019-01-14T08:48:36.340Z,25.90
2019-01-14T08:51:05.956Z,32.40
2019-01-14T08:53:35.798Z,31.77
2019-01-14T08:56:05.392Z,30.90
2019-01-14T08:58:35.136Z,31.20
2019-01-14T09:01:04.872Z,30.13
2019-01-14T09:03:34.697Z,33.53
2019-01-14T09:06:04.526Z,34.20
2019-01-14T09:08:34.458Z,36.03
2019-01-14T09:11:04.392Z,34.80
2019-01-14T09:13:34.208Z,37.97
2019-01-14T09:16:04.258Z,35.33
2019-01-14T09:18:34.076Z,35.00
2019-01-14T09:21:03.905Z,37.10
2019-01-14T09:23:33.631Z,35.80
2019-01-14T09:26:05.381Z,35.53
2019-01-14T09:28:35.024Z,36.17
2019-01-14T09:31:04.663Z,35.87
2019-01-14T09:33:34.484Z,34.07
2019-01-14T09:36:04.212Z,34.87
2019-01-14T09:38:36.045Z,34.73
2019-01-14T09:41:05.509Z,34.50
2019-01-14T09:43:35.333Z,36.60
2019-01-14T09:46:05.175Z,36.60
2019-01-14T09:48:34.976Z,33.90
2019-01-14T09:51:04.726Z,35.90
2019-01-14T09:53:34.354Z,35.30
2019-01-14T09:56:04.299Z,38.07
2019-01-14T09:58:34.018Z,34.87
2019-01-14T10:01:03.741Z,35.57
2019-01-14T10:03:33.452Z,39.70
2019-01-14T10:06:03.200Z,41.93
2019-01-14T10:08:32.913Z,43.77
2019-01-14T10:11:02.947Z,46.57
2019-01-14T10:13:32.373Z,48.57
2019-01-14T10:16:04.036Z,48.70
2019-01-14T10:18:33.552Z,49.10
2019-01-14T10:21:03.304Z,50.67
2019-01-14T10:23:33.005Z,51.63
2019-01-14T10:26:03.272Z,50.60
2019-01-14T10:28:33.096Z,51.70
2019-01-14T10:31:02.740Z,52.37
2019-01-14T10:33:32.440Z,54.40
2019-01-14T10:36:02.257Z,58.43
2019-01-14T10:38:32.206Z,61.20
2019-01-14T10:41:01.912Z,55.27
2019-01-14T10:43:31.666Z,56.10
2019-01-14T10:46:01.493Z,52.80
2019-01-14T10:48:31.205Z,52.30
2019-01-14T10:51:01.029Z,50.90
2019-01-14T10:53:30.862Z,51.23
2019-01-14T10:56:00.573Z,51.17
2019-01-14T10:58:30.340Z,50.13
2019-01-14T11:00:59.949Z,50.87
2019-01-14T11:03:29.682Z,50.03
2019-01-14T11:05:59.506Z,51.00
2019-01-14T11:08:29.139Z,51.10
2019-01-14T11:10:58.873Z,50.50
2019-01-14T11:13:28.793Z,51.43
2019-01-14T11:15:58.514Z,53.60
2019-01-14T11:18:28.336Z,57.10
2019-01-14T11:20:58.186Z,58.03
2019-01-14T11:23:29.198Z,60.30
2019-01-14T11:25:58.873Z,60.13
2019-01-14T11:28:28.664Z,63.30
2019-01-14T11:30:59.213Z,64.83
2019-01-14T11:33:28.953Z,72.10
2019-01-14T11:35:58.875Z,72.60
2019-01-14T11:38:42.826Z,70.40
2019-01-14T11:41:12.776Z,69.40
2019-01-14T11:43:42.806Z,66.43
2019-01-14T11:46:12.840Z,63.50
2019-01-14T11:48:42.549Z,61.20
2019-01-14T11:51:12.010Z,62.90
2019-01-14T11:53:41.809Z,59.63
2019-01-14T11:56:11.656Z,58.13
2019-01-14T11:58:41.579Z,57.70
2019-01-14T12:01:11.403Z,56.60
2019-01-14T12:03:41.243Z,58.93
2019-01-14T12:06:11.175Z,54.23
2019-01-14T12:08:40.774Z,56.07
2019-01-14T12:11:10.638Z,53.57
2019-01-14T12:13:40.344Z,52.33
2019-01-14T12:16:10.093Z,51.67
2019-01-14T12:18:39.939Z,52.30
2019-01-14T12:21:09.762Z,52.20
2019-01-14T12:23:39.558Z,49.63
2019-01-14T12:26:09.404Z,48.30
2019-01-14T12:28:39.024Z,49.57
2019-01-14T12:31:08.856Z,46.63
2019-01-14T12:33:38.568Z,46.30
2019-01-14T12:36:08.309Z,46.60
2019-01-14T12:38:38.124Z,45.90
2019-01-14T12:41:07.981Z,43.97
2019-01-14T12:43:37.670Z,44.47
2019-01-14T12:46:07.433Z,42.13
2019-01-14T12:48:37.237Z,40.63
2019-01-14T12:51:07.205Z,41.40
2019-01-14T12:53:36.999Z,40.60
2019-01-14T12:56:06.746Z,39.57
2019-01-14T12:58:36.458Z,39.60
2019-01-14T13:01:06.387Z,37.33
2019-01-14T13:03:37.636Z,37.27
2019-01-14T13:06:07.592Z,48.03
2019-01-14T13:08:37.506Z,43.37
2019-01-14T13:11:07.456Z,42.53
2019-01-14T13:13:37.270Z,40.87
2019-01-14T13:16:07.092Z,40.80
2019-01-14T13:18:36.846Z,39.30
2019-01-14T13:21:07.888Z,39.83
2019-01-14T13:23:37.630Z,38.70
2019-01-14T13:26:07.540Z,36.20
2019-01-14T13:28:37.405Z,37.80
2019-01-14T13:31:07.206Z,36.27
2019-01-14T13:33:37.040Z,37.27
2019-01-14T13:36:06.856Z,36.40
2019-01-14T13:38:36.805Z,35.67
2019-01-14T13:41:07.425Z,34.77
2019-01-14T13:43:37.285Z,34.80
2019-01-14T13:46:07.095Z,34.30
2019-01-14T13:48:36.962Z,34.70
2019-01-14T13:51:06.747Z,33.47
2019-01-14T13:53:38.010Z,33.97
2019-01-14T13:56:07.545Z,34.33
2019-01-14T13:58:37.484Z,32.90
2019-01-14T14:01:07.305Z,34.20
2019-01-14T14:03:37.271Z,40.00
2019-01-14T14:06:07.069Z,37.57
2019-01-14T14:08:36.904Z,36.40
2019-01-14T14:11:06.841Z,35.30
2019-01-14T14:13:36.678Z,34.70
2019-01-14T14:16:06.372Z,33.83
2019-01-14T14:18:36.234Z,33.87
2019-01-14T14:21:06.065Z,33.67
2019-01-14T14:23:35.893Z,34.10
2019-01-14T14:26:05.611Z,32.90
2019-01-14T14:28:35.439Z,30.90
2019-01-14T14:31:05.274Z,31.33
2019-01-14T14:33:35.002Z,31.13
2019-01-14T14:36:04.819Z,30.33
2019-01-14T14:38:34.748Z,29.97
2019-01-14T14:41:04.478Z,29.67
2019-01-14T14:43:34.416Z,28.70
2019-01-14T14:46:04.232Z,28.07
2019-01-14T14:48:33.968Z,27.93
2019-01-14T14:51:03.796Z,28.13
2019-01-14T14:53:33.460Z,27.93
2019-01-14T14:56:03.374Z,27.17
2019-01-14T14:58:33.194Z,27.43
2019-01-14T15:01:02.900Z,26.77
2019-01-14T15:03:32.726Z,27.90
2019-01-14T15:06:04.622Z,26.90
2019-01-14T15:08:35.459Z,26.50
2019-01-14T15:11:05.297Z,26.20
2019-01-14T15:13:35.127Z,26.30
2019-01-14T15:16:05.047Z,26.17
2019-01-14T15:18:35.019Z,26.33
2019-01-14T15:21:04.798Z,26.43
2019-01-14T15:23:34.756Z,25.30
2019-01-14T15:26:04.465Z,25.57
2019-01-14T15:28:34.214Z,25.10
2019-01-14T15:31:04.014Z,26.53
2019-01-14T15:33:33.886Z,26.27
2019-01-14T15:36:03.779Z,26.13
2019-01-14T15:38:33.627Z,26.03
2019-01-14T15:41:03.459Z,26.10
2019-01-14T15:43:33.285Z,25.80
2019-01-14T15:46:02.804Z,26.73
2019-01-14T15:48:32.752Z,25.37
2019-01-14T15:51:02.656Z,25.20
2019-01-14T15:53:32.605Z,27.27
2019-01-14T15:56:02.522Z,25.90
2019-01-14T15:58:32.360Z,24.83
2019-01-14T16:01:02.600Z,25.63
2019-01-14T16:03:33.932Z,26.63
2019-01-14T16:06:03.583Z,26.40
2019-01-14T16:08:33.322Z,34.23
2019-01-14T16:11:03.147Z,33.87
2019-01-14T16:13:32.886Z,33.70
2019-01-14T16:16:02.806Z,35.10
2019-01-14T16:18:32.643Z,35.30
2019-01-14T16:21:02.257Z,35.67
2019-01-14T16:23:32.085Z,38.37
2019-01-14T16:26:01.917Z,38.27
2019-01-14T16:28:31.644Z,54.90
2019-01-14T16:31:01.474Z,61.87
2019-01-14T16:33:31.400Z,63.70
2019-01-14T16:36:01.118Z,70.60
2019-01-14T16:38:30.875Z,71.07
2019-01-14T16:41:00.584Z,70.17
2019-01-14T16:43:30.425Z,73.87
2019-01-14T16:46:00.343Z,78.60
2019-01-14T16:48:48.853Z,77.73
2019-01-14T16:51:18.408Z,76.10
2019-01-14T16:53:48.251Z,74.43
2019-01-14T16:56:18.213Z,74.77
2019-01-14T16:58:47.917Z,78.50
2019-01-14T17:01:17.645Z,78.93
2019-01-14T17:03:47.389Z,84.43
2019-01-14T17:06:17.211Z,83.37
2019-01-14T17:08:47.048Z,88.77
2019-01-14T17:11:17.010Z,92.97
2019-01-14T17:13:46.911Z,88.30
2019-01-14T17:16:16.720Z,89.17
2019-01-14T17:18:46.453Z,86.53
2019-01-14T17:21:16.380Z,83.97
2019-01-14T17:23:46.401Z,83.73
2019-01-14T17:26:16.132Z,90.93
2019-01-14T17:28:45.884Z,86.47
2019-01-14T17:31:15.512Z,88.97
2019-01-14T17:33:45.458Z,95.83
2019-01-14T17:36:15.317Z,92.10
2019-01-14T17:38:44.996Z,92.33
2019-01-14T17:41:15.708Z,87.37
2019-01-14T17:43:45.451Z,82.10
2019-01-14T17:46:15.094Z,83.43
2019-01-14T17:48:45.004Z,81.73
2019-01-14T17:51:14.859Z,77.90
2019-01-14T17:53:44.661Z,81.13
2019-01-14T17:56:14.191Z,76.20
2019-01-14T17:58:44.135Z,73.43
2019-01-14T18:01:13.661Z,72.53
2019-01-14T18:03:43.475Z,74.70
2019-01-14T18:06:13.257Z,76.87
2019-01-14T18:08:43.139Z,78.13
2019-01-14T18:11:12.872Z,77.03
2019-01-14T18:13:42.590Z,79.60
2019-01-14T18:16:12.129Z,78.03
2019-01-14T18:18:42.072Z,77.33
2019-01-14T18:21:13.940Z,75.87
2019-01-14T18:23:43.140Z,76.87
2019-01-14T18:26:12.875Z,108.73
2019-01-14T18:28:42.784Z,82.50
2019-01-14T18:31:12.415Z,78.50
2019-01-14T18:33:42.144Z,81.03
2019-01-14T18:36:11.885Z,75.73
2019-01-14T18:38:43.025Z,74.33
2019-01-14T18:41:12.775Z,72.97
2019-01-14T18:43:42.694Z,71.20
2019-01-14T18:46:12.535Z,70.60
2019-01-14T18:48:42.339Z,74.83
2019-01-14T18:51:12.007Z,70.93
2019-01-14T18:53:41.800Z,68.07
2019-01-14T18:56:11.653Z,69.13
2019-01-14T18:58:41.347Z,67.43
2019-01-14T19:01:11.246Z,66.00
2019-01-14T19:03:41.141Z,64.27
2019-01-14T19:06:11.058Z,64.90
2019-01-14T19:08:40.574Z,62.90
2019-01-14T19:11:10.321Z,62.73
2019-01-14T19:13:40.130Z,59.03
2019-01-14T19:16:09.969Z,57.50
2019-01-14T19:18:39.893Z,58.97
2019-01-14T19:21:09.511Z,59.57
2019-01-14T19:23:39.237Z,60.50
2019-01-14T19:26:09.081Z,66.97
2019-01-14T19:28:38.610Z,62.83
2019-01-14T19:31:08.438Z,61.33
2019-01-14T19:33:38.256Z,56.93
2019-01-14T19:36:08.084Z,58.57
2019-01-14T19:38:38.026Z,57.23
2019-01-14T19:41:07.837Z,55.80
2019-01-14T19:43:37.604Z,54.60
2019-01-14T19:46:07.427Z,52.33
2019-01-14T19:48:37.216Z,54.67
2019-01-14T19:51:06.972Z,53.40
2019-01-14T19:53:36.817Z,53.80
2019-01-14T19:56:06.531Z,51.57
2019-01-14T19:58:36.337Z,51.90
2019-01-14T20:01:06.186Z,52.17
2019-01-14T20:03:36.100Z,50.43
2019-01-14T20:06:05.739Z,50.93
2019-01-14T20:08:35.861Z,49.90
2019-01-14T20:11:09.290Z,52.00
2019-01-14T20:13:37.050Z,48.97
2019-01-14T20:16:06.919Z,49.50
2019-01-14T20:18:36.614Z,48.30
2019-01-14T20:21:06.481Z,47.23
2019-01-14T20:23:36.158Z,47.33
2019-01-14T20:26:06.114Z,47.37
2019-01-14T20:28:35.946Z,47.57
2019-01-14T20:31:05.776Z,55.03
2019-01-14T20:33:35.594Z,55.10
2019-01-14T20:36:05.323Z,58.20
2019-01-14T20:38:35.052Z,55.10
2019-01-14T20:41:04.671Z,52.23
2019-01-14T20:43:34.400Z,51.07
2019-01-14T20:46:04.238Z,50.50
2019-01-14T20:48:34.126Z,48.93
2019-01-14T20:51:03.604Z,47.30
2019-01-14T20:53:33.412Z,46.20
2019-01-14T20:56:03.253Z,45.53
2019-01-14T20:58:33.281Z,48.33
2019-01-14T21:01:04.550Z,49.90
2019-01-14T21:03:34.472Z,51.30
2019-01-14T21:06:04.317Z,52.70
2019-01-14T21:08:34.027Z,53.77
2019-01-14T21:11:03.951Z,54.43
2019-01-14T21:13:33.903Z,61.47
2019-01-14T21:16:03.639Z,62.20
2019-01-14T21:18:33.357Z,70.43
2019-01-14T21:21:03.285Z,71.70
2019-01-14T21:23:33.111Z,72.67
2019-01-14T21:26:02.928Z,70.80
2019-01-14T21:28:32.790Z,75.63
2019-01-14T21:31:02.636Z,79.23
2019-01-14T21:33:32.557Z,83.87
2019-01-14T21:36:02.281Z,92.73
2019-01-14T21:38:32.302Z,91.90
2019-01-14T21:41:02.123Z,96.13
2019-01-14T21:43:31.960Z,88.50
2019-01-14T21:46:01.769Z,90.60
2019-01-14T21:48:31.630Z,94.00
2019-01-14T21:51:01.441Z,95.73
2019-01-14T21:53:31.175Z,98.50
2019-01-14T21:56:00.903Z,95.40
2019-01-14T21:58:30.626Z,92.13
2019-01-14T22:01:02.515Z,93.80
2019-01-14T22:03:32.220Z,90.60
2019-01-14T22:06:02.156Z,95.40
2019-01-14T22:08:31.993Z,91.20
2019-01-14T22:11:01.596Z,93.27
2019-01-14T22:13:31.438Z,94.00
2019-01-14T22:16:01.367Z,92.13
2019-01-14T22:18:31.306Z,85.90
2019-01-14T22:21:01.138Z,85.17
2019-01-14T22:23:30.965Z,84.70
2019-01-14T22:26:00.784Z,82.73
2019-01-14T22:28:30.517Z,82.67
2019-01-14T22:31:00.234Z,86.87
2019-01-14T22:33:30.096Z,83.73
2019-01-14T22:35:59.993Z,82.30
2019-01-14T22:38:29.850Z,81.93
2019-01-14T22:40:59.745Z,80.27
2019-01-14T22:43:29.724Z,81.47
2019-01-14T22:46:00.345Z,80.37
2019-01-14T22:48:30.077Z,75.40
2019-01-14T22:51:00.000Z,77.67
2019-01-14T22:53:29.933Z,75.47
2019-01-14T22:55:59.766Z,74.67
2019-01-14T22:58:29.680Z,73.43
2019-01-14T23:01:41.046Z,71.97
2019-01-14T23:04:10.702Z,72.27
2019-01-14T23:06:40.436Z,71.53
2019-01-14T23:09:10.889Z,69.87
2019-01-14T23:11:40.693Z,68.20
2019-01-14T23:14:10.418Z,67.20
2019-01-14T23:16:40.245Z,65.40
2019-01-14T23:19:10.089Z,61.27
2019-01-14T23:21:40.023Z,59.00
2019-01-14T23:24:09.742Z,57.13
2019-01-14T23:26:39.545Z,53.23
2019-01-14T23:29:09.411Z,52.30
2019-01-14T23:31:39.216Z,50.90
2019-01-14T23:34:08.954Z,48.10
2019-01-14T23:36:38.778Z,47.00
2019-01-14T23:39:09.857Z,48.00
2019-01-14T23:41:39.546Z,47.27
2019-01-14T23:44:10.622Z,47.07
2019-01-14T23:46:40.336Z,45.50
2019-01-14T23:49:11.500Z,46.33
2019-01-14T23:51:41.324Z,45.77
2019-01-14T23:54:11.172Z,42.37
2019-01-14T23:56:40.980Z,39.70
2019-01-14T23:59:10.526Z,38.77
